sensor_id;sensor_type;location;lat;lon;timestamp;temperature;humidity
4081;DHT22;2055;50.074;8.436;2023-05-07T00:01:27;15.30;99.90
4081;DHT22;2055;50.074;8.436;2023-05-07T00:03:53;15.30;99.90
4081;DHT22;2055;50.074;8.436;2023-05-07T00:06:18;15.30;99.90
4081;DHT22;2055;50.074;8.436;2023-05-07T00:08:44;15.30;99.90
4081;DHT22;2055;50.074;8.436;2023-05-07T00:11:10;15.20;99.90
4081;DHT22;2055;50.074;8.436;2023-05-07T00:13:36;15.20;99.90
4081;DHT22;2055;50.074;8.436;2023-05-07T00:16:02;15.30;99.90
4081;DHT22;2055;50.074;8.436;2023-05-07T00:18:28;15.20;99.90
4081;DHT22;2055;50.074;8.436;2023-05-07T00:20:53;15.30;99.90
4081;DHT22;2055;50.074;8.436;2023-05-07T00:23:19;15.30;99.90
4081;DHT22;2055;50.074;8.436;2023-05-07T00:25:44;15.30;99.90
4081;DHT22;2055;50.074;8.436;2023-05-07T00:28:10;15.30;99.90
4081;DHT22;2055;50.074;8.436;2023-05-07T00:30:35;15.30;99.90
4081;DHT22;2055;50.074;8.436;2023-05-07T00:33:01;15.30;99.90
4081;DHT22;2055;50.074;8.436;2023-05-07T00:35:28;15.40;99.90
4081;DHT22;2055;50.074;8.436;2023-05-07T00:37:53;15.30;99.90
4081;DHT22;2055;50.074;8.436;2023-05-07T00:40:19;15.30;99.90
4081;DHT22;2055;50.074;8.436;2023-05-07T00:42:44;15.40;99.90
4081;DHT22;2055;50.074;8.436;2023-05-07T00:45:13;15.40;99.90
4081;DHT22;2055;50.074;8.436;2023-05-07T00:47:39;15.40;99.90
4081;DHT22;2055;50.074;8.436;2023-05-07T00:50:05;15.40;99.90
4081;DHT22;2055;50.074;8.436;2023-05-07T00:52:31;15.30;99.90
4081;DHT22;2055;50.074;8.436;2023-05-07T00:54:56;15.30;99.90
4081;DHT22;2055;50.074;8.436;2023-05-07T00:57:24;15.20;99.90
4081;DHT22;2055;50.074;8.436;2023-05-07T00:59:51;15.20;99.90
4081;DHT22;2055;50.074;8.436;2023-05-07T01:02:17;15.20;99.90
4081;DHT22;2055;50.074;8.436;2023-05-07T01:04:42;15.10;99.90
4081;DHT22;2055;50.074;8.436;2023-05-07T01:07:08;15.20;99.90
4081;DHT22;2055;50.074;8.436;2023-05-07T01:09:34;15.20;99.90
4081;DHT22;2055;50.074;8.436;2023-05-07T01:12:00;15.30;99.90
4081;DHT22;2055;50.074;8.436;2023-05-07T01:14:26;15.30;99.90
4081;DHT22;2055;50.074;8.436;2023-05-07T01:16:53;15.30;99.90
4081;DHT22;2055;50.074;8.436;2023-05-07T01:19:19;15.30;99.90
4081;DHT22;2055;50.074;8.436;2023-05-07T01:21:48;15.40;99.90
4081;DHT22;2055;50.074;8.436;2023-05-07T01:24:15;15.40;99.90
4081;DHT22;2055;50.074;8.436;2023-05-07T01:26:42;15.50;99.90
4081;DHT22;2055;50.074;8.436;2023-05-07T01:29:08;15.50;99.90
4081;DHT22;2055;50.074;8.436;2023-05-07T01:31:34;15.50;99.90
4081;DHT22;2055;50.074;8.436;2023-05-07T01:34:02;15.60;99.90
4081;DHT22;2055;50.074;8.436;2023-05-07T01:36:29;15.60;99.90
4081;DHT22;2055;50.074;8.436;2023-05-07T01:38:55;15.60;99.90
4081;DHT22;2055;50.074;8.436;2023-05-07T01:41:23;15.60;99.90
4081;DHT22;2055;50.074;8.436;2023-05-07T01:43:50;15.60;99.90
4081;DHT22;2055;50.074;8.436;2023-05-07T01:46:17;15.60;99.90
4081;DHT22;2055;50.074;8.436;2023-05-07T01:48:44;15.60;99.90
4081;DHT22;2055;50.074;8.436;2023-05-07T01:51:11;15.60;99.90
4081;DHT22;2055;50.074;8.436;2023-05-07T01:53:37;15.60;99.90
4081;DHT22;2055;50.074;8.436;2023-05-07T01:56:03;15.60;99.90
4081;DHT22;2055;50.074;8.436;2023-05-07T01:58:28;15.60;99.90
4081;DHT22;2055;50.074;8.436;2023-05-07T02:00:54;15.70;99.90
4081;DHT22;2055;50.074;8.436;2023-05-07T02:03:19;15.70;99.90
4081;DHT22;2055;50.074;8.436;2023-05-07T02:05:45;15.70;99.90
4081;DHT22;2055;50.074;8.436;2023-05-07T02:08:10;15.60;99.90
4081;DHT22;2055;50.074;8.436;2023-05-07T02:10:36;15.60;99.90
4081;DHT22;2055;50.074;8.436;2023-05-07T02:13:01;15.30;99.90
4081;DHT22;2055;50.074;8.436;2023-05-07T02:15:27;15.60;99.90
4081;DHT22;2055;50.074;8.436;2023-05-07T02:18:04;15.60;99.90
4081;DHT22;2055;50.074;8.436;2023-05-07T02:20:30;15.60;99.90
4081;DHT22;2055;50.074;8.436;2023-05-07T02:22:55;15.60;99.90
4081;DHT22;2055;50.074;8.436;2023-05-07T02:25:21;15.60;99.90
4081;DHT22;2055;50.074;8.436;2023-05-07T02:27:46;15.60;99.90
4081;DHT22;2055;50.074;8.436;2023-05-07T02:30:13;15.60;99.90
4081;DHT22;2055;50.074;8.436;2023-05-07T02:32:38;15.50;99.90
4081;DHT22;2055;50.074;8.436;2023-05-07T02:35:05;15.50;99.90
4081;DHT22;2055;50.074;8.436;2023-05-07T02:37:30;15.50;99.90
4081;DHT22;2055;50.074;8.436;2023-05-07T02:39:56;15.50;99.90
4081;DHT22;2055;50.074;8.436;2023-05-07T02:42:21;15.40;99.90
4081;DHT22;2055;50.074;8.436;2023-05-07T02:44:47;15.30;99.90
4081;DHT22;2055;50.074;8.436;2023-05-07T02:47:14;15.30;99.90
4081;DHT22;2055;50.074;8.436;2023-05-07T02:49:40;15.30;99.90
4081;DHT22;2055;50.074;8.436;2023-05-07T02:52:06;15.30;99.90
4081;DHT22;2055;50.074;8.436;2023-05-07T02:54:31;15.20;99.90
4081;DHT22;2055;50.074;8.436;2023-05-07T02:56:57;15.20;99.90
4081;DHT22;2055;50.074;8.436;2023-05-07T02:59:23;15.30;99.90
4081;DHT22;2055;50.074;8.436;2023-05-07T03:01:49;15.30;99.90
4081;DHT22;2055;50.074;8.436;2023-05-07T03:04:14;15.30;99.90
4081;DHT22;2055;50.074;8.436;2023-05-07T03:06:40;15.30;99.90
4081;DHT22;2055;50.074;8.436;2023-05-07T03:09:06;15.30;99.90
4081;DHT22;2055;50.074;8.436;2023-05-07T03:11:31;15.30;99.90
4081;DHT22;2055;50.074;8.436;2023-05-07T03:13:57;15.20;99.90
4081;DHT22;2055;50.074;8.436;2023-05-07T03:16:22;15.20;99.90
4081;DHT22;2055;50.074;8.436;2023-05-07T03:18:48;15.20;99.90
4081;DHT22;2055;50.074;8.436;2023-05-07T03:21:13;15.20;99.90
4081;DHT22;2055;50.074;8.436;2023-05-07T03:23:39;15.20;99.90
4081;DHT22;2055;50.074;8.436;2023-05-07T03:26:04;15.20;99.90
4081;DHT22;2055;50.074;8.436;2023-05-07T03:28:30;15.20;99.90
4081;DHT22;2055;50.074;8.436;2023-05-07T03:30:55;15.20;99.90
4081;DHT22;2055;50.074;8.436;2023-05-07T03:33:21;15.10;99.90
4081;DHT22;2055;50.074;8.436;2023-05-07T03:35:46;15.20;99.90
4081;DHT22;2055;50.074;8.436;2023-05-07T03:38:12;15.20;99.90
4081;DHT22;2055;50.074;8.436;2023-05-07T03:40:37;15.20;99.90
4081;DHT22;2055;50.074;8.436;2023-05-07T03:43:03;15.20;99.90
4081;DHT22;2055;50.074;8.436;2023-05-07T03:45:28;15.10;99.90
4081;DHT22;2055;50.074;8.436;2023-05-07T03:47:54;15.10;99.90
4081;DHT22;2055;50.074;8.436;2023-05-07T03:50:19;15.10;99.90
4081;DHT22;2055;50.074;8.436;2023-05-07T03:52:45;15.10;99.90
4081;DHT22;2055;50.074;8.436;2023-05-07T03:55:11;15.00;99.90
4081;DHT22;2055;50.074;8.436;2023-05-07T03:57:36;15.00;99.90
4081;DHT22;2055;50.074;8.436;2023-05-07T04:00:02;15.00;99.90
4081;DHT22;2055;50.074;8.436;2023-05-07T04:02:29;15.00;99.90
4081;DHT22;2055;50.074;8.436;2023-05-07T04:04:54;15.00;99.90
4081;DHT22;2055;50.074;8.436;2023-05-07T04:07:20;14.90;99.90
4081;DHT22;2055;50.074;8.436;2023-05-07T04:09:45;15.00;99.90
4081;DHT22;2055;50.074;8.436;2023-05-07T04:12:11;15.00;99.90
4081;DHT22;2055;50.074;8.436;2023-05-07T04:14:36;15.00;99.90
4081;DHT22;2055;50.074;8.436;2023-05-07T04:17:02;15.00;99.90
4081;DHT22;2055;50.074;8.436;2023-05-07T04:19:28;15.00;99.90
4081;DHT22;2055;50.074;8.436;2023-05-07T04:21:53;15.00;99.90
4081;DHT22;2055;50.074;8.436;2023-05-07T04:24:19;15.00;99.90
4081;DHT22;2055;50.074;8.436;2023-05-07T04:26:45;15.00;99.90
4081;DHT22;2055;50.074;8.436;2023-05-07T04:29:10;15.00;99.90
4081;DHT22;2055;50.074;8.436;2023-05-07T04:31:36;15.10;99.90
4081;DHT22;2055;50.074;8.436;2023-05-07T04:34:02;15.00;99.90
4081;DHT22;2055;50.074;8.436;2023-05-07T04:36:27;15.00;99.90
4081;DHT22;2055;50.074;8.436;2023-05-07T04:38:54;15.10;99.90
4081;DHT22;2055;50.074;8.436;2023-05-07T04:41:20;15.00;99.90
4081;DHT22;2055;50.074;8.436;2023-05-07T04:43:46;15.10;99.90
4081;DHT22;2055;50.074;8.436;2023-05-07T04:46:11;15.10;99.90
4081;DHT22;2055;50.074;8.436;2023-05-07T04:48:37;15.10;99.90
4081;DHT22;2055;50.074;8.436;2023-05-07T04:51:02;15.10;99.90
4081;DHT22;2055;50.074;8.436;2023-05-07T04:53:28;15.10;99.90
4081;DHT22;2055;50.074;8.436;2023-05-07T04:55:57;15.10;99.90
4081;DHT22;2055;50.074;8.436;2023-05-07T04:58:23;15.10;99.90
4081;DHT22;2055;50.074;8.436;2023-05-07T05:00:49;15.10;99.90
4081;DHT22;2055;50.074;8.436;2023-05-07T05:03:15;15.10;99.90
4081;DHT22;2055;50.074;8.436;2023-05-07T05:05:40;15.20;99.90
4081;DHT22;2055;50.074;8.436;2023-05-07T05:08:06;15.20;99.90
4081;DHT22;2055;50.074;8.436;2023-05-07T05:10:31;15.30;99.90
4081;DHT22;2055;50.074;8.436;2023-05-07T05:12:57;15.30;99.90
4081;DHT22;2055;50.074;8.436;2023-05-07T05:15:22;15.40;99.90
4081;DHT22;2055;50.074;8.436;2023-05-07T05:17:48;15.50;99.90
4081;DHT22;2055;50.074;8.436;2023-05-07T05:20:13;15.50;99.90
4081;DHT22;2055;50.074;8.436;2023-05-07T05:22:40;15.50;99.90
4081;DHT22;2055;50.074;8.436;2023-05-07T05:25:06;15.60;99.90
4081;DHT22;2055;50.074;8.436;2023-05-07T05:27:31;15.70;99.90
4081;DHT22;2055;50.074;8.436;2023-05-07T05:29:57;15.70;99.90
4081;DHT22;2055;50.074;8.436;2023-05-07T05:32:22;15.80;99.90
4081;DHT22;2055;50.074;8.436;2023-05-07T05:34:48;15.80;99.90
4081;DHT22;2055;50.074;8.436;2023-05-07T05:37:13;15.90;99.90
4081;DHT22;2055;50.074;8.436;2023-05-07T05:39:39;16.00;99.90
4081;DHT22;2055;50.074;8.436;2023-05-07T05:42:04;16.00;99.90
4081;DHT22;2055;50.074;8.436;2023-05-07T05:44:30;16.00;99.90
4081;DHT22;2055;50.074;8.436;2023-05-07T05:46:55;16.10;99.90
4081;DHT22;2055;50.074;8.436;2023-05-07T05:49:22;16.20;99.90
4081;DHT22;2055;50.074;8.436;2023-05-07T05:51:48;16.40;99.90
4081;DHT22;2055;50.074;8.436;2023-05-07T05:54:14;16.40;99.90
4081;DHT22;2055;50.074;8.436;2023-05-07T05:56:41;16.40;99.90
4081;DHT22;2055;50.074;8.436;2023-05-07T05:59:06;16.50;99.90
4081;DHT22;2055;50.074;8.436;2023-05-07T06:01:32;16.60;99.90
4081;DHT22;2055;50.074;8.436;2023-05-07T06:03:58;16.60;99.90
4081;DHT22;2055;50.074;8.436;2023-05-07T06:06:23;16.60;99.90
4081;DHT22;2055;50.074;8.436;2023-05-07T06:08:49;16.50;99.90
4081;DHT22;2055;50.074;8.436;2023-05-07T06:11:14;16.50;99.90
4081;DHT22;2055;50.074;8.436;2023-05-07T06:13:40;16.60;99.90
4081;DHT22;2055;50.074;8.436;2023-05-07T06:16:06;16.60;99.90
4081;DHT22;2055;50.074;8.436;2023-05-07T06:18:32;16.60;99.90
4081;DHT22;2055;50.074;8.436;2023-05-07T06:20:57;16.60;99.90
4081;DHT22;2055;50.074;8.436;2023-05-07T06:23:22;16.70;99.90
4081;DHT22;2055;50.074;8.436;2023-05-07T06:25:49;16.70;99.90
4081;DHT22;2055;50.074;8.436;2023-05-07T06:28:18;16.80;99.90
4081;DHT22;2055;50.074;8.436;2023-05-07T06:30:43;16.80;99.90
4081;DHT22;2055;50.074;8.436;2023-05-07T06:33:09;17.10;99.90
4081;DHT22;2055;50.074;8.436;2023-05-07T06:35:35;16.90;99.90
4081;DHT22;2055;50.074;8.436;2023-05-07T06:38:00;17.00;99.90
4081;DHT22;2055;50.074;8.436;2023-05-07T06:40:26;17.00;99.90
4081;DHT22;2055;50.074;8.436;2023-05-07T06:42:52;17.00;99.90
4081;DHT22;2055;50.074;8.436;2023-05-07T06:45:18;17.00;99.90
4081;DHT22;2055;50.074;8.436;2023-05-07T06:47:44;17.20;99.90
4081;DHT22;2055;50.074;8.436;2023-05-07T06:50:10;17.40;99.90
4081;DHT22;2055;50.074;8.436;2023-05-07T06:52:35;17.80;99.90
4081;DHT22;2055;50.074;8.436;2023-05-07T06:55:01;18.10;99.90
4081;DHT22;2055;50.074;8.436;2023-05-07T06:57:26;18.40;99.90
4081;DHT22;2055;50.074;8.436;2023-05-07T06:59:52;18.50;99.90
4081;DHT22;2055;50.074;8.436;2023-05-07T07:02:17;18.70;99.90
4081;DHT22;2055;50.074;8.436;2023-05-07T07:04:43;18.50;99.90
4081;DHT22;2055;50.074;8.436;2023-05-07T07:07:10;18.40;99.90
4081;DHT22;2055;50.074;8.436;2023-05-07T07:09:35;18.40;99.90
4081;DHT22;2055;50.074;8.436;2023-05-07T07:12:01;18.50;99.90
4081;DHT22;2055;50.074;8.436;2023-05-07T07:14:26;18.40;99.90
4081;DHT22;2055;50.074;8.436;2023-05-07T07:16:52;18.40;99.90
4081;DHT22;2055;50.074;8.436;2023-05-07T07:19:17;18.40;99.90
4081;DHT22;2055;50.074;8.436;2023-05-07T07:21:43;18.60;99.90
4081;DHT22;2055;50.074;8.436;2023-05-07T07:24:10;18.70;99.90
4081;DHT22;2055;50.074;8.436;2023-05-07T07:26:35;18.60;99.90
4081;DHT22;2055;50.074;8.436;2023-05-07T07:29:01;18.30;99.90
4081;DHT22;2055;50.074;8.436;2023-05-07T07:31:26;18.30;99.90
4081;DHT22;2055;50.074;8.436;2023-05-07T07:33:52;18.20;99.90
4081;DHT22;2055;50.074;8.436;2023-05-07T07:36:17;18.30;99.90
4081;DHT22;2055;50.074;8.436;2023-05-07T07:38:43;18.40;99.90
4081;DHT22;2055;50.074;8.436;2023-05-07T07:41:08;18.40;99.90
4081;DHT22;2055;50.074;8.436;2023-05-07T07:43:34;18.40;99.90
4081;DHT22;2055;50.074;8.436;2023-05-07T07:46:01;18.20;99.90
4081;DHT22;2055;50.074;8.436;2023-05-07T07:48:26;18.20;99.90
4081;DHT22;2055;50.074;8.436;2023-05-07T07:50:52;18.20;99.90
4081;DHT22;2055;50.074;8.436;2023-05-07T07:53:17;18.20;99.90
4081;DHT22;2055;50.074;8.436;2023-05-07T07:55:43;18.00;99.90
4081;DHT22;2055;50.074;8.436;2023-05-07T07:58:09;18.10;99.90
4081;DHT22;2055;50.074;8.436;2023-05-07T08:00:34;18.30;99.90
4081;DHT22;2055;50.074;8.436;2023-05-07T08:03:00;18.30;99.90
4081;DHT22;2055;50.074;8.436;2023-05-07T08:05:26;18.30;99.90
4081;DHT22;2055;50.074;8.436;2023-05-07T08:07:51;18.40;99.90
4081;DHT22;2055;50.074;8.436;2023-05-07T08:10:18;18.60;99.90
4081;DHT22;2055;50.074;8.436;2023-05-07T08:12:50;18.60;99.90
4081;DHT22;2055;50.074;8.436;2023-05-07T08:15:16;18.70;99.90
4081;DHT22;2055;50.074;8.436;2023-05-07T08:17:42;18.70;99.90
4081;DHT22;2055;50.074;8.436;2023-05-07T08:20:08;18.70;99.90
4081;DHT22;2055;50.074;8.436;2023-05-07T08:22:35;18.90;99.90
4081;DHT22;2055;50.074;8.436;2023-05-07T08:25:01;19.10;99.90
4081;DHT22;2055;50.074;8.436;2023-05-07T08:27:26;19.20;99.90
4081;DHT22;2055;50.074;8.436;2023-05-07T08:29:52;19.20;99.90
4081;DHT22;2055;50.074;8.436;2023-05-07T08:32:17;19.10;99.90
4081;DHT22;2055;50.074;8.436;2023-05-07T08:34:43;19.00;99.90
4081;DHT22;2055;50.074;8.436;2023-05-07T08:37:08;19.00;99.90
4081;DHT22;2055;50.074;8.436;2023-05-07T08:39:34;19.10;99.90
4081;DHT22;2055;50.074;8.436;2023-05-07T08:42:00;19.20;99.90
4081;DHT22;2055;50.074;8.436;2023-05-07T08:44:33;19.40;99.90
4081;DHT22;2055;50.074;8.436;2023-05-07T08:47:01;19.70;99.90
4081;DHT22;2055;50.074;8.436;2023-05-07T08:49:28;20.00;99.90
4081;DHT22;2055;50.074;8.436;2023-05-07T08:51:53;19.80;99.90
4081;DHT22;2055;50.074;8.436;2023-05-07T08:54:20;19.90;99.90
4081;DHT22;2055;50.074;8.436;2023-05-07T08:56:46;19.90;99.90
4081;DHT22;2055;50.074;8.436;2023-05-07T08:59:11;20.10;99.90
4081;DHT22;2055;50.074;8.436;2023-05-07T09:01:37;20.30;99.90
4081;DHT22;2055;50.074;8.436;2023-05-07T09:04:04;20.10;99.90
4081;DHT22;2055;50.074;8.436;2023-05-07T09:06:30;20.00;99.90
4081;DHT22;2055;50.074;8.436;2023-05-07T09:08:56;20.00;99.90
4081;DHT22;2055;50.074;8.436;2023-05-07T09:11:23;20.10;99.90
4081;DHT22;2055;50.074;8.436;2023-05-07T09:13:56;20.50;99.90
4081;DHT22;2055;50.074;8.436;2023-05-07T09:16:23;20.50;99.90
4081;DHT22;2055;50.074;8.436;2023-05-07T09:18:53;20.60;99.90
4081;DHT22;2055;50.074;8.436;2023-05-07T09:21:20;20.70;99.90
4081;DHT22;2055;50.074;8.436;2023-05-07T09:23:50;20.30;99.90
4081;DHT22;2055;50.074;8.436;2023-05-07T09:26:15;20.50;99.90
4081;DHT22;2055;50.074;8.436;2023-05-07T09:28:41;20.60;99.90
4081;DHT22;2055;50.074;8.436;2023-05-07T09:31:08;21.20;99.90
4081;DHT22;2055;50.074;8.436;2023-05-07T09:33:34;21.20;99.90
4081;DHT22;2055;50.074;8.436;2023-05-07T09:36:03;21.60;99.90
4081;DHT22;2055;50.074;8.436;2023-05-07T09:38:28;21.50;99.90
4081;DHT22;2055;50.074;8.436;2023-05-07T09:41:23;21.20;99.90
4081;DHT22;2055;50.074;8.436;2023-05-07T09:43:53;21.30;99.90
4081;DHT22;2055;50.074;8.436;2023-05-07T09:46:25;21.70;99.90
4081;DHT22;2055;50.074;8.436;2023-05-07T09:48:53;22.10;99.90
4081;DHT22;2055;50.074;8.436;2023-05-07T09:51:51;22.20;99.90
4081;DHT22;2055;50.074;8.436;2023-05-07T09:54:18;22.40;99.90
4081;DHT22;2055;50.074;8.436;2023-05-07T09:56:44;22.30;99.90
4081;DHT22;2055;50.074;8.436;2023-05-07T09:59:13;22.10;99.90
4081;DHT22;2055;50.074;8.436;2023-05-07T10:01:41;21.60;99.90
4081;DHT22;2055;50.074;8.436;2023-05-07T10:04:08;21.70;99.90
4081;DHT22;2055;50.074;8.436;2023-05-07T10:06:34;21.70;99.90
4081;DHT22;2055;50.074;8.436;2023-05-07T10:09:01;21.90;99.90
4081;DHT22;2055;50.074;8.436;2023-05-07T10:11:27;22.10;99.90
4081;DHT22;2055;50.074;8.436;2023-05-07T10:13:54;22.00;99.90
4081;DHT22;2055;50.074;8.436;2023-05-07T10:16:20;21.90;99.90
4081;DHT22;2055;50.074;8.436;2023-05-07T10:18:46;22.10;99.90
4081;DHT22;2055;50.074;8.436;2023-05-07T10:21:18;22.20;99.90
4081;DHT22;2055;50.074;8.436;2023-05-07T10:23:45;22.70;99.90
4081;DHT22;2055;50.074;8.436;2023-05-07T10:26:14;22.90;99.90
4081;DHT22;2055;50.074;8.436;2023-05-07T10:28:43;23.70;99.90
4081;DHT22;2055;50.074;8.436;2023-05-07T10:33:56;23.40;99.90
4081;DHT22;2055;50.074;8.436;2023-05-07T10:36:24;23.50;99.90
4081;DHT22;2055;50.074;8.436;2023-05-07T10:38:50;23.40;99.90
4081;DHT22;2055;50.074;8.436;2023-05-07T10:41:16;23.90;99.90
4081;DHT22;2055;50.074;8.436;2023-05-07T10:43:45;23.90;99.90
4081;DHT22;2055;50.074;8.436;2023-05-07T10:46:21;23.90;99.90
4081;DHT22;2055;50.074;8.436;2023-05-07T10:51:29;23.50;99.90
4081;DHT22;2055;50.074;8.436;2023-05-07T10:56:42;25.30;99.90
4081;DHT22;2055;50.074;8.436;2023-05-07T11:01:53;23.20;99.90
4081;DHT22;2055;50.074;8.436;2023-05-07T11:04:19;23.10;99.90
4081;DHT22;2055;50.074;8.436;2023-05-07T11:17:32;23.40;99.90
4081;DHT22;2055;50.074;8.436;2023-05-07T11:20:00;23.40;99.90
4081;DHT22;2055;50.074;8.436;2023-05-07T11:25:02;23.60;99.90
4081;DHT22;2055;50.074;8.436;2023-05-07T11:27:29;23.70;99.90
4081;DHT22;2055;50.074;8.436;2023-05-07T11:29:55;23.50;99.90
4081;DHT22;2055;50.074;8.436;2023-05-07T11:32:28;23.60;99.90
4081;DHT22;2055;50.074;8.436;2023-05-07T11:34:55;23.80;99.90
4081;DHT22;2055;50.074;8.436;2023-05-07T11:37:22;23.90;99.90
4081;DHT22;2055;50.074;8.436;2023-05-07T11:39:48;23.80;99.90
4081;DHT22;2055;50.074;8.436;2023-05-07T11:42:35;23.90;99.90
4081;DHT22;2055;50.074;8.436;2023-05-07T11:45:03;23.70;99.90
4081;DHT22;2055;50.074;8.436;2023-05-07T11:47:32;23.90;99.90
4081;DHT22;2055;50.074;8.436;2023-05-07T11:50:03;24.00;99.90
4081;DHT22;2055;50.074;8.436;2023-05-07T11:52:29;24.40;99.90
4081;DHT22;2055;50.074;8.436;2023-05-07T11:54:56;24.30;99.90
4081;DHT22;2055;50.074;8.436;2023-05-07T11:57:23;24.40;99.90
4081;DHT22;2055;50.074;8.436;2023-05-07T11:59:56;24.70;99.90
4081;DHT22;2055;50.074;8.436;2023-05-07T12:02:23;25.10;99.90
4081;DHT22;2055;50.074;8.436;2023-05-07T12:04:53;25.00;99.90
4081;DHT22;2055;50.074;8.436;2023-05-07T12:07:18;24.80;99.90
4081;DHT22;2055;50.074;8.436;2023-05-07T12:09:47;24.90;99.90
4081;DHT22;2055;50.074;8.436;2023-05-07T12:12:13;25.40;99.90
4081;DHT22;2055;50.074;8.436;2023-05-07T12:14:45;25.70;99.90
4081;DHT22;2055;50.074;8.436;2023-05-07T12:17:13;25.20;99.90
4081;DHT22;2055;50.074;8.436;2023-05-07T12:19:41;25.10;99.90
4081;DHT22;2055;50.074;8.436;2023-05-07T12:22:08;25.50;99.90
4081;DHT22;2055;50.074;8.436;2023-05-07T12:24:46;25.50;99.90
4081;DHT22;2055;50.074;8.436;2023-05-07T12:27:16;25.50;99.90
4081;DHT22;2055;50.074;8.436;2023-05-07T12:29:50;25.20;99.90
4081;DHT22;2055;50.074;8.436;2023-05-07T12:32:16;25.10;99.90
4081;DHT22;2055;50.074;8.436;2023-05-07T12:34:46;25.20;99.90
4081;DHT22;2055;50.074;8.436;2023-05-07T12:37:12;25.20;99.90
4081;DHT22;2055;50.074;8.436;2023-05-07T12:39:38;25.50;99.90
4081;DHT22;2055;50.074;8.436;2023-05-07T12:42:04;26.10;99.90
4081;DHT22;2055;50.074;8.436;2023-05-07T12:44:31;26.00;99.90
4081;DHT22;2055;50.074;8.436;2023-05-07T12:46:57;25.70;99.90
4081;DHT22;2055;50.074;8.436;2023-05-07T12:49:23;26.20;99.90
4081;DHT22;2055;50.074;8.436;2023-05-07T12:51:50;27.10;99.90
4081;DHT22;2055;50.074;8.436;2023-05-07T12:54:32;27.90;99.90
4081;DHT22;2055;50.074;8.436;2023-05-07T12:59:38;28.10;99.90
4081;DHT22;2055;50.074;8.436;2023-05-07T13:02:05;27.80;99.90
4081;DHT22;2055;50.074;8.436;2023-05-07T13:04:31;27.50;99.90
4081;DHT22;2055;50.074;8.436;2023-05-07T13:06:56;27.10;99.90
4081;DHT22;2055;50.074;8.436;2023-05-07T13:09:22;26.60;99.90
4081;DHT22;2055;50.074;8.436;2023-05-07T13:11:47;26.60;99.90
4081;DHT22;2055;50.074;8.436;2023-05-07T13:14:13;26.70;99.90
4081;DHT22;2055;50.074;8.436;2023-05-07T13:16:38;26.90;99.90
4081;DHT22;2055;50.074;8.436;2023-05-07T13:19:04;26.80;99.90
4081;DHT22;2055;50.074;8.436;2023-05-07T13:21:30;26.70;99.90
4081;DHT22;2055;50.074;8.436;2023-05-07T13:23:57;26.20;99.90
4081;DHT22;2055;50.074;8.436;2023-05-07T13:26:23;25.70;99.90
4081;DHT22;2055;50.074;8.436;2023-05-07T13:28:49;26.20;99.90
4081;DHT22;2055;50.074;8.436;2023-05-07T13:31:14;27.30;99.90
4081;DHT22;2055;50.074;8.436;2023-05-07T13:33:40;28.30;99.90
4081;DHT22;2055;50.074;8.436;2023-05-07T13:36:05;29.10;99.90
4081;DHT22;2055;50.074;8.436;2023-05-07T13:38:31;29.50;99.90
4081;DHT22;2055;50.074;8.436;2023-05-07T13:40:57;29.30;99.90
4081;DHT22;2055;50.074;8.436;2023-05-07T13:43:24;29.00;99.90
4081;DHT22;2055;50.074;8.436;2023-05-07T13:45:50;29.20;99.90
4081;DHT22;2055;50.074;8.436;2023-05-07T13:48:15;28.50;99.90
4081;DHT22;2055;50.074;8.436;2023-05-07T13:50:41;28.30;99.90
4081;DHT22;2055;50.074;8.436;2023-05-07T13:53:07;28.40;99.90
4081;DHT22;2055;50.074;8.436;2023-05-07T13:55:33;28.30;99.90
4081;DHT22;2055;50.074;8.436;2023-05-07T13:58:00;27.90;99.90
4081;DHT22;2055;50.074;8.436;2023-05-07T14:00:27;27.20;99.90
4081;DHT22;2055;50.074;8.436;2023-05-07T14:02:53;27.30;99.90
4081;DHT22;2055;50.074;8.436;2023-05-07T14:05:19;27.40;99.90
4081;DHT22;2055;50.074;8.436;2023-05-07T14:07:45;27.90;99.90
4081;DHT22;2055;50.074;8.436;2023-05-07T14:10:10;27.70;99.90
4081;DHT22;2055;50.074;8.436;2023-05-07T14:12:36;27.00;99.90
4081;DHT22;2055;50.074;8.436;2023-05-07T14:15:03;27.10;99.90
4081;DHT22;2055;50.074;8.436;2023-05-07T14:17:28;27.50;99.90
4081;DHT22;2055;50.074;8.436;2023-05-07T14:19:54;27.70;99.90
4081;DHT22;2055;50.074;8.436;2023-05-07T14:22:22;27.20;99.90
4081;DHT22;2055;50.074;8.436;2023-05-07T14:24:49;27.40;99.90
4081;DHT22;2055;50.074;8.436;2023-05-07T14:27:15;27.90;99.90
4081;DHT22;2055;50.074;8.436;2023-05-07T14:29:40;28.60;99.90
4081;DHT22;2055;50.074;8.436;2023-05-07T14:32:06;28.80;99.90
4081;DHT22;2055;50.074;8.436;2023-05-07T14:34:32;28.50;99.90
4081;DHT22;2055;50.074;8.436;2023-05-07T14:36:58;28.50;99.90
4081;DHT22;2055;50.074;8.436;2023-05-07T14:39:23;28.80;99.90
4081;DHT22;2055;50.074;8.436;2023-05-07T14:41:49;29.10;99.90
4081;DHT22;2055;50.074;8.436;2023-05-07T14:44:14;28.90;99.90
4081;DHT22;2055;50.074;8.436;2023-05-07T14:46:40;29.00;99.90
4081;DHT22;2055;50.074;8.436;2023-05-07T14:49:06;28.20;99.90
4081;DHT22;2055;50.074;8.436;2023-05-07T14:51:32;27.80;99.90
4081;DHT22;2055;50.074;8.436;2023-05-07T14:53:58;27.40;99.90
4081;DHT22;2055;50.074;8.436;2023-05-07T14:56:24;27.50;99.90
4081;DHT22;2055;50.074;8.436;2023-05-07T14:58:50;27.10;99.90
4081;DHT22;2055;50.074;8.436;2023-05-07T15:01:15;26.80;99.90
4081;DHT22;2055;50.074;8.436;2023-05-07T15:03:41;26.60;99.90
4081;DHT22;2055;50.074;8.436;2023-05-07T15:06:06;26.00;99.90
4081;DHT22;2055;50.074;8.436;2023-05-07T15:08:32;25.60;99.90
4081;DHT22;2055;50.074;8.436;2023-05-07T15:10:57;25.30;99.90
4081;DHT22;2055;50.074;8.436;2023-05-07T15:13:23;25.00;99.90
4081;DHT22;2055;50.074;8.436;2023-05-07T15:15:48;24.90;99.90
4081;DHT22;2055;50.074;8.436;2023-05-07T15:18:15;24.60;99.90
4081;DHT22;2055;50.074;8.436;2023-05-07T15:20:41;24.30;99.90
4081;DHT22;2055;50.074;8.436;2023-05-07T15:23:08;24.20;99.90
4081;DHT22;2055;50.074;8.436;2023-05-07T15:25:40;24.20;99.90
4081;DHT22;2055;50.074;8.436;2023-05-07T15:28:06;24.20;99.90
4081;DHT22;2055;50.074;8.436;2023-05-07T15:30:32;24.30;99.90
4081;DHT22;2055;50.074;8.436;2023-05-07T15:32:58;25.10;99.90
4081;DHT22;2055;50.074;8.436;2023-05-07T15:35:23;25.80;99.90
4081;DHT22;2055;50.074;8.436;2023-05-07T15:37:51;25.80;99.90
4081;DHT22;2055;50.074;8.436;2023-05-07T15:40:16;25.80;99.90
4081;DHT22;2055;50.074;8.436;2023-05-07T15:42:44;25.40;99.90
4081;DHT22;2055;50.074;8.436;2023-05-07T15:45:09;24.80;99.90
4081;DHT22;2055;50.074;8.436;2023-05-07T15:47:35;24.20;99.90
4081;DHT22;2055;50.074;8.436;2023-05-07T15:50:02;23.90;99.90
4081;DHT22;2055;50.074;8.436;2023-05-07T15:52:28;23.70;99.90
4081;DHT22;2055;50.074;8.436;2023-05-07T15:54:54;23.60;99.90
4081;DHT22;2055;50.074;8.436;2023-05-07T15:57:23;23.70;99.90
4081;DHT22;2055;50.074;8.436;2023-05-07T15:59:50;23.60;99.90
4081;DHT22;2055;50.074;8.436;2023-05-07T16:02:15;23.30;99.90
4081;DHT22;2055;50.074;8.436;2023-05-07T16:04:41;23.10;99.90
4081;DHT22;2055;50.074;8.436;2023-05-07T16:07:06;23.00;99.90
4081;DHT22;2055;50.074;8.436;2023-05-07T16:09:32;23.00;99.90
4081;DHT22;2055;50.074;8.436;2023-05-07T16:11:59;22.90;99.90
4081;DHT22;2055;50.074;8.436;2023-05-07T16:14:25;22.80;99.90
4081;DHT22;2055;50.074;8.436;2023-05-07T16:16:50;22.90;99.90
4081;DHT22;2055;50.074;8.436;2023-05-07T16:19:16;22.80;99.90
4081;DHT22;2055;50.074;8.436;2023-05-07T16:21:41;22.80;99.90
4081;DHT22;2055;50.074;8.436;2023-05-07T16:24:07;22.70;99.90